Strona główna
METAR-TAF:

METAR-TAF

Lotnisko :

Port lotniczy Luleå

Luleå, Szwecja

Szerokość geograficzna: 65-33N, Długość geograficzna: 022-08E, wysokość: 17 m

Aktualna obserwacja pogody

Raport powstał 36 minut temu, godzina 22:20 UTC
Wiatr 1 kt z kierunków zmiennych
Temperatura 10°C
Wilgotność 62%
Ciśnienie 1033 hPa
Widzialność 10 km lub więcej

METAR: ESPA 302220Z AUTO VRB01KT 9999 NCD 10/03 Q1033

czas: 00:56 (22:56 UTC)

Prognoza

Raport powstał 11 godziny i 26 minut temu, godzina 11:30 UTC
Prognoza ważna od 30 godzina 12 UTC do 30 godzina 15 UTC
Wiatr 8 kt od południe
Widzialność 10 km lub więcej
Brak chmur poniżej 1500 m i brak chmur cumulonimbus

TAF: ESPA 301130Z 3012/3015 17008KT CAVOK

Obserwacja i prognoza pogody dla ponad 4000 lotnisk (raport METAR i TAF).

Dostępne stacje oznaczono żółtymi i czerwonymi punktami na mapie.

Najedź kursorem aby zobaczyć nazwę stacji.

Kliknij aby zobaczyć obserwacje i prognozy pogody.

Aby zmienić mapę: kliknij na zielony przycisk z czarnym krzyżykiem, aby powiększyć; na zielony przycisk z myślnikiem, aby pomniejszyć; na zielone strzałki, aby przejść do map sąsiednich.


METAR-TAF: